Queen Victoria — ZCEF3 — position and weather

sailwx.info

Track history (hours):
 
Tides and Currents Weather Stations Pressure Air Temp Water Temp Dewpoint Dewpoint Depression Visibility Wind Speed Wind Dir Waves Ship Positions

Queen Victoria

Last reported at 2019-May-20 02:00 UTC. Time now 2019-May-20 02:24 UTC.
Position N 51°37' E 002°24'.

Length 294 m; draft 8 m.

Type: Passenger vessel. MMSI: 310624000.

Date/timePositionNaut miles runAvg speedWind from/ knotsBaromVisibWave heightAir tempDewpointWater temp
2019-May-20 02:00N 51°37' E 002°24'1121.1
2019-May-20 01:30N 51°29' E 002°13'1019.6
2019-May-20 01:00N 51°20' E 002°08'919.0
2019-May-20 00:30N 51°12' E 001°59'1121.8
2019-May-20 00:00N 51°05' E 001°45'1020.8
2019-May-19 23:30N 50°58' E 001°33'1021.0
2019-May-19 23:00N 50°49' E 001°25'1420.5
2019-May-19 22:19N 50°38' E 001°12'821.2
2019-May-19 21:57N 50°33' E 001°02'1020.9
2019-May-19 21:27N 50°30' E 000°47'2621.9
2019-May-19 20:17N 50°22' E 000°08'622.2
2019-May-19 20:00N 50°21' W 000°01'1121.2
2019-May-19 19:30N 50°25' W 000°16'1121.2
2019-May-19 19:00N 50°31' W 000°31'1021.1
2019-May-19 18:30N 50°35' W 000°45'918.3
2019-May-19 18:00N 50°41' W 000°57'611.3
2019-May-19 17:31N 50°44' W 001°04'917.1
2019-May-19 17:00N 50°47' W 001°17'4 8.6
2019-May-19 16:30N 50°51' W 001°20'4 7.8
2019-May-19 16:01N 50°53' W 001°24'0 0.5
2019-May-19 15:25N 50°54' W 001°24'0 0.0
2019-May-19 14:55N 50°54' W 001°24'0 0.0
2019-May-19 14:25N 50°54' W 001°24'0 0.0
2019-May-19 13:55N 50°54' W 001°24'0 0.0
2019-May-19 13:25N 50°54' W 001°24'0 0.0
2019-May-19 12:55N 50°54' W 001°24'0 0.0
2019-May-19 12:25N 50°54' W 001°24'0 0.0
2019-May-19 11:55N 50°54' W 001°24'0 0.0
2019-May-19 11:25N 50°54' W 001°24'0 0.0
2019-May-19 10:55N 50°54' W 001°24'0 0.0
2019-May-19 10:25N 50°54' W 001°24'0 0.0
2019-May-19 09:55N 50°54' W 001°24'0 0.0
2019-May-19 09:25N 50°54' W 001°24'0 0.0
2019-May-19 08:55N 50°54' W 001°24'0 0.0
2019-May-19 08:25N 50°54' W 001°24'0 0.0
2019-May-19 07:55N 50°54' W 001°24'0 0.0
2019-May-19 07:25N 50°54' W 001°24'0 0.0
2019-May-19 07:00N 50°54' W 001°24'0 0.0
2019-May-19 06:30N 50°54' W 001°24'0 0.0
2019-May-19 06:00N 50°54' W 001°24'0 0.0
2019-May-19 05:30N 50°54' W 001°24'0 0.4
2019-May-19 05:01N 50°53' W 001°24'4 7.9
2019-May-19 04:31N 50°51' W 001°20'4 8.4
2019-May-19 04:01N 50°46' W 001°18'714.1
2019-May-19 03:30N 50°45' W 001°07'714.2
2019-May-19 03:00N 50°42' W 000°57'511.0
2019-May-19 02:31N 50°37' W 000°52'713.3
2019-May-19 02:00N 50°36' W 000°42'713.4
2019-May-19 01:31N 50°35' W 000°32'815.0
2019-May-19 01:00N 50°32' W 000°21'816.3
2019-May-19 00:30N 50°30' W 000°08'1716.1
2019-May-18 23:27N 50°33' E 000°18'715.1
2019-May-18 23:00N 50°35' E 000°28'814.4
2019-May-18 22:27N 50°38' E 000°40'714.4
2019-May-18 22:00N 50°42' E 000°48'714.3
2019-May-18 21:30N 50°46' E 000°57'714.7
2019-May-18 21:00N 50°51' E 001°06'815.7
2019-May-18 20:30N 50°55' E 001°17'917.4
2019-May-18 20:00N 51°01' E 001°27'918.7
2019-May-18 19:30N 51°08' E 001°36'815.3
2019-May-18 19:01N 51°13' E 001°45'1121.4
2019-May-18 18:30N 51°23' E 001°52'1020.7
2019-May-18 18:01N 51°31' E 002°03'918.6
2019-May-18 17:30N 51°37' E 002°13'1019.4
2019-May-18 17:00N 51°45' E 002°24'1019.1
2019-May-18 16:30N 51°53' E 002°32'918.1
2019-May-18 16:00N 52°02' E 002°36'918.1
2019-May-18 15:30N 52°11' E 002°37'917.9
2019-May-18 15:00N 52°20' E 002°38'917.5
2019-May-18 14:30N 52°28' E 002°38'714.8
2019-May-18 14:00N 52°36' E 002°38'816.7
2019-May-18 13:30N 52°44' E 002°38'917.9
2019-May-18 13:00N 52°53' E 002°38'918.2
2019-May-18 12:30N 53°02' E 002°38'918.4
2019-May-18 12:00N 53°11' E 002°42'1018.9
2019-May-18 11:30N 53°20' E 002°47'27019.2
2019-May-17 21:25N 57°44' E 004°23'819.5
2019-May-17 21:00N 57°52' E 004°27'917.8
2019-May-17 20:30N 58°01' E 004°30'713.8
2019-May-17 20:00N 58°08' E 004°33'1019.3
2019-May-17 19:30N 58°17' E 004°38'1019.5
2019-May-17 18:59N 58°27' E 004°44'919.4
2019-May-17 18:30N 58°35' E 004°50'1019.3
2019-May-17 18:00N 58°45' E 004°55'1019.5
2019-May-17 17:30N 58°54' E 004°60'1019.8
2019-May-17 17:00N 59°04' E 005°05'713.5
2019-May-17 16:30N 59°10' E 005°07'814.9
2019-May-17 16:00N 59°18' E 005°06'714.3
2019-May-17 15:30N 59°25' E 005°09'3 6.5
2019-May-17 15:00N 59°24' E 005°15'0 0.4
2019-May-17 14:30N 59°25' E 005°15'0 0.0
2019-May-17 14:00N 59°25' E 005°15'0 0.0
2019-May-17 13:30N 59°25' E 005°15'0 0.0
2019-May-17 13:00N 59°25' E 005°15'0 0.0
2019-May-17 12:30N 59°25' E 005°15'0 0.0
2019-May-17 12:00N 59°25' E 005°15'0 0.0
2019-May-17 11:30N 59°25' E 005°15'0 0.0
2019-May-17 11:00N 59°25' E 005°15'0 0.0
2019-May-17 10:30N 59°25' E 005°15'0 0.0
2019-May-17 10:00N 59°25' E 005°15'0 0.0
2019-May-17 09:30N 59°25' E 005°15'0 0.0
2019-May-17 09:00N 59°25' E 005°15'0 0.0
2019-May-17 08:30N 59°25' E 005°15'0 0.0
2019-May-17 08:00N 59°25' E 005°15'0 0.0
2019-May-17 07:30N 59°25' E 005°15'0 0.0
2019-May-17 07:00N 59°25' E 005°15'0 0.0
2019-May-17 06:30N 59°25' E 005°15'0 0.0
2019-May-17 06:00N 59°25' E 005°15'0 0.0
2019-May-17 05:30N 59°25' E 005°15'3 5.7
2019-May-17 05:00N 59°27' E 005°12'613.0
2019-May-17 04:30N 59°30' E 005°00'713.5
2019-May-17 04:00N 59°36' E 004°55'714.1
2019-May-17 03:30N 59°43' E 004°50'714.9
2019-May-17 03:00N 59°50' E 004°45'714.7
2019-May-17 02:30N 59°57' E 004°40'714.1
2019-May-17 02:00N 60°03' E 004°35'815.2
2019-May-17 01:30N 60°10' E 004°29'1020.2
2019-May-17 01:00N 60°20' E 004°23'1020.4
2019-May-17 00:30N 60°30' E 004°17'1020.3
2019-May-17 00:00N 60°40' E 004°11'1020.3
2019-May-16 23:30N 60°49' E 004°05'1020.1
2019-May-16 23:00N 60°59' E 004°01'1019.9
2019-May-16 22:30N 61°09' E 004°01'1019.9
2019-May-16 22:00N 61°19' E 004°02'1019.9
2019-May-16 21:30N 61°29' E 004°02'1019.7
2019-May-16 21:00N 61°39' E 004°02'3228.7
2019-May-16 21:00N 61°36' E 004°00'1224.8 040 / 201026.610.8 8.8 7.6 9.0
2019-May-16 20:30N 61°46' E 004°14'1019.3
2019-May-16 20:00N 61°53' E 004°29'919.3
2019-May-16 19:30N 61°58' E 004°46'815.0
2019-May-16 19:00N 61°56' E 005°02'815.5
2019-May-16 18:30N 61°54' E 005°18'1019.0
2019-May-16 18:00N 61°54' E 005°38'714.0
2019-May-16 17:30N 61°52' E 005°52'714.3
2019-May-16 17:00N 61°51' E 006°07'714.2
2019-May-16 16:30N 61°50' E 006°22'611.9
2019-May-16 15:59N 61°52' E 006°35'712.7
2019-May-16 15:28N 61°51' E 006°48'7 0.6
2019-May-16 04:40N 61°52' E 006°34'315.8
2019-May-16 04:29N 61°49' E 006°29'919.1
2019-May-16 04:00N 61°51' E 006°10'918.5
2019-May-16 03:30N 61°51' E 005°51'816.3
2019-May-16 03:00N 61°54' E 005°35'918.7
2019-May-16 02:30N 61°54' E 005°15'815.7
2019-May-16 02:00N 61°56' E 004°59'715.0
2019-May-16 01:30N 61°57' E 004°43'918.8
2019-May-16 01:00N 61°52' E 004°27'918.2
2019-May-16 00:30N 61°47' E 004°10'714.7
2019-May-16 00:00N 61°42' E 004°00'714.7
2019-May-15 23:30N 61°36' E 003°50'714.9
2019-May-15 23:00N 61°30' E 003°41'713.7
2019-May-15 22:30N 61°24' E 003°50'714.9
2019-May-15 22:00N 61°21' E 004°04'918.4
2019-May-15 21:30N 61°17' E 004°21'1019.2
2019-May-15 21:00N 61°15' E 004°41'918.7
2019-May-15 20:30N 61°12' E 004°60'714.3
2019-May-15 20:01N 61°08' E 005°10'918.8
2019-May-15 19:30N 61°04' E 005°28'1020.1
2019-May-15 19:00N 61°08' E 005°48'1019.9
2019-May-15 18:30N 61°08' E 006°08'1019.5
2019-May-15 18:00N 61°06' E 006°28'816.6
2019-May-15 17:30N 61°11' E 006°43'917.3
2019-May-15 17:00N 61°06' E 006°58'714.9
2019-May-15 16:30N 60°59' E 007°04'611.2
2019-May-15 16:00N 60°54' E 007°10'3 5.0
2019-May-15 15:30N 60°52' E 007°07'0 0.2
2019-May-15 14:58N 60°52' E 007°07'0 0.0
2019-May-15 14:28N 60°52' E 007°07'0 0.0
2019-May-15 13:58N 60°52' E 007°07'0 0.0
2019-May-15 13:28N 60°52' E 007°07'0 0.0
2019-May-15 12:58N 60°52' E 007°07'0 0.0
2019-May-15 12:28N 60°52' E 007°07'0 0.0
2019-May-15 11:58N 60°52' E 007°07'0 0.0
2019-May-15 11:28N 60°52' E 007°07'0 0.0
2019-May-15 10:58N 60°52' E 007°07'0 0.0
2019-May-15 10:28N 60°52' E 007°07'0 0.0
2019-May-15 09:58N 60°52' E 007°07'0 0.0
2019-May-15 09:28N 60°52' E 007°07'0 0.0
2019-May-15 08:58N 60°52' E 007°07'0 0.0
2019-May-15 08:28N 60°52' E 007°07'0 0.0
2019-May-15 07:58N 60°52' E 007°07'0 0.0
2019-May-15 07:28N 60°52' E 007°07'0 0.0
2019-May-15 06:58N 60°52' E 007°07'0 0.0
2019-May-15 06:28N 60°52' E 007°07'0 0.0
2019-May-15 05:58N 60°52' E 007°07'0 0.1
2019-May-15 05:29N 60°52' E 007°07'3 6.8
2019-May-15 05:00N 60°55' E 007°10'611.1
2019-May-15 04:30N 60°60' E 007°04'611.9
2019-May-15 03:59N 61°05' E 006°59'612.0
2019-May-15 03:30N 61°09' E 006°51'612.1
2019-May-15 03:00N 61°11' E 006°39'611.2
2019-May-15 02:30N 61°07' E 006°31'714.3
2019-May-15 02:00N 61°07' E 006°16'814.8
2019-May-15 01:30N 61°08' E 006°01'918.2
2019-May-15 01:00N 61°07' E 005°42'1019.3
2019-May-15 00:30N 61°03' E 005°24'918.2
2019-May-15 00:00N 61°05' E 005°05'1019.6
2019-May-14 23:31N 61°00' E 004°48'1019.0
2019-May-14 23:00N 60°52' E 004°38'1019.3
2019-May-14 22:30N 60°45' E 004°24'918.9
2019-May-14 22:01N 60°37' E 004°14'815.2
2019-May-14 21:30N 60°29' E 004°17'815.1
2019-May-14 21:00N 60°22' E 004°19'815.1
2019-May-14 20:29N 60°14' E 004°22'715.1
2019-May-14 20:00N 60°07' E 004°24'815.0
2019-May-14 19:30N 59°60' E 004°27'815.4
2019-May-14 19:00N 59°52' E 004°30'715.0
2019-May-14 18:31N 59°45' E 004°33'714.7
2019-May-14 18:01N 59°37' E 004°35'815.8
2019-May-14 17:30N 59°30' E 004°42'1019.5
2019-May-14 17:01N 59°23' E 004°54'1019.2
2019-May-14 16:30N 59°14' E 005°01'918.4
2019-May-14 16:00N 59°07' E 005°13'918.8
2019-May-14 15:30N 59°06' E 005°31'816.4
2019-May-14 15:00N 58°60' E 005°41'2 3.6
2019-May-14 14:29N 58°58' E 005°44'0 0.0
2019-May-14 13:59N 58°58' E 005°44'0 0.0
2019-May-14 13:29N 58°58' E 005°44'0 0.0
2019-May-14 12:59N 58°58' E 005°44'0 0.0
2019-May-14 12:29N 58°58' E 005°44'0 0.0
2019-May-14 11:59N 58°58' E 005°44'0 0.0
2019-May-14 11:29N 58°58' E 005°44'0 0.0
2019-May-14 10:59N 58°58' E 005°44'0 0.0
2019-May-14 10:29N 58°58' E 005°44'0 0.0
2019-May-14 09:59N 58°58' E 005°44'0 0.0
2019-May-14 09:29N 58°58' E 005°44'0 0.0
2019-May-14 08:59N 58°58' E 005°44'0 0.0
2019-May-14 08:29N 58°58' E 005°44'0 0.0
2019-May-14 07:59N 58°58' E 005°44'0 0.0
2019-May-14 07:29N 58°58' E 005°44'0 0.0
2019-May-14 06:59N 58°58' E 005°44'0 0.0
2019-May-14 06:29N 58°58' E 005°44'1 1.9
2019-May-14 06:01N 58°59' E 005°43'611.4
2019-May-14 05:30N 59°03' E 005°34'714.2
2019-May-14 05:00N 58°56' E 005°33'612.6
2019-May-14 04:30N 58°50' E 005°28'918.7
2019-May-14 04:00N 58°42' E 005°18'1019.4
2019-May-14 03:30N 58°34' E 005°10'1019.2
2019-May-14 03:00N 58°24' E 005°07'1019.5
2019-May-14 02:30N 58°14' E 005°04'1019.6
2019-May-14 02:00N 58°05' E 005°01'1019.6
2019-May-14 01:29N 57°55' E 004°59'919.3
2019-May-14 01:00N 57°46' E 004°57'1019.1
2019-May-14 00:29N 57°36' E 004°53'919.2
2019-May-14 00:00N 57°27' E 004°49'1019.3
2019-May-13 23:30N 57°17' E 004°47'1019.2
2019-May-13 22:59N 57°07' E 004°44'1019.0
2019-May-13 22:29N 56°58' E 004°41'1019.3
2019-May-13 22:00N 56°49' E 004°38'1019.2
2019-May-13 21:30N 56°39' E 004°35'1019.1
2019-May-13 21:00N 56°30' E 004°32'61518.0
2019-May-13 21:00N 56°36' E 004°30'1531.8 010 / 51039.110.8 8.7 7.3-0.0
2019-May-13 20:30N 56°21' E 004°30'1019.1
2019-May-13 20:00N 56°11' E 004°27'1019.1
2019-May-13 19:30N 56°02' E 004°24'1019.1
2019-May-13 19:00N 55°52' E 004°21'1019.2
2019-May-13 18:28N 55°42' E 004°18'919.2
2019-May-13 18:00N 55°33' E 004°15'919.2
2019-May-13 17:30N 55°24' E 004°12'13718.5
2019-May-13 10:08N 53°16' E 002°49'44300.7
2019-May-13 10:00N 54°00' E 002°42'471255.5 020 / 11041.510.8 9.4 3.911.0
2019-May-13 09:57N 53°13' E 002°47'2720.2
2019-May-13 08:37N 52°46' E 002°42'220.0
2019-May-13 08:30N 52°44' E 002°42'1019.9
2019-May-13 08:00N 52°34' E 002°42'1019.8
2019-May-13 07:30N 52°24' E 002°41'1019.5
2019-May-13 07:00N 52°14' E 002°39'1019.3
2019-May-13 06:30N 52°05' E 002°38'1119.0
2019-May-13 05:56N 51°54' E 002°37'818.7
2019-May-13 05:30N 51°46' E 002°34'918.7
2019-May-13 05:00N 51°39' E 002°25'918.5
2019-May-13 04:30N 51°32' E 002°15'917.4
2019-May-13 04:01N 51°24' E 002°08'5 9.8
2019-May-13 03:31N 51°19' E 002°08'611.9
2019-May-13 03:01N 51°14' E 002°04'917.2
2019-May-13 02:31N 51°10' E 001°52'917.3
2019-May-13 02:01N 51°05' E 001°40'917.1
2019-May-13 01:31N 50°58' E 001°32'917.3
2019-May-13 01:00N 50°50' E 001°27'917.3
2019-May-13 00:31N 50°43' E 001°20'917.8
2019-May-13 00:01N 50°37' E 001°10'917.7
2019-May-12 23:30N 50°31' E 000°59'917.7
2019-May-12 23:00N 50°29' E 000°46'15981.4
2019-May-12 23:00N 50°24' E 000°24'612.3 070 / 241037.210.8 10.4 5.4 9.0
2019-May-12 22:30N 50°26' E 000°33'1217.3
2019-May-12 21:49N 50°23' E 000°15'1617.0
2019-May-12 20:52N 50°23' W 000°10'817.2
2019-May-12 20:25N 50°26' W 000°22'917.7
2019-May-12 19:55N 50°30' W 000°33'717.6
2019-May-12 19:31N 50°34' W 000°43'917.2
2019-May-12 19:00N 50°39' W 000°55'612.0
2019-May-12 18:30N 50°43' W 001°01'816.7
2019-May-12 18:00N 50°46' W 001°13'5 9.5
2019-May-12 17:31N 50°49' W 001°18'5 9.2
2019-May-12 17:01N 50°53' W 001°23'1 1.1
2019-May-12 16:29N 50°53' W 001°24'0 0.0
2019-May-12 15:59N 50°53' W 001°24'0 0.0
2019-May-12 15:26N 50°53' W 001°24'0 0.0
2019-May-12 14:56N 50°53' W 001°24'0 0.0
2019-May-12 14:29N 50°53' W 001°24'0 0.0
2019-May-12 13:59N 50°53' W 001°24'0 0.0
2019-May-12 13:29N 50°53' W 001°24'0 0.0
2019-May-12 12:59N 50°53' W 001°24'0 0.0
2019-May-12 12:29N 50°53' W 001°24'0 0.0
2019-May-12 11:59N 50°53' W 001°24'0 0.0
2019-May-12 11:29N 50°53' W 001°24'0 0.0
2019-May-12 10:59N 50°53' W 001°24'0 0.0
2019-May-12 10:29N 50°53' W 001°24'0 0.0
2019-May-12 09:59N 50°53' W 001°24'0 0.0
2019-May-12 09:29N 50°53' W 001°24'0 0.0
2019-May-12 08:59N 50°53' W 001°24'0 0.0
2019-May-12 08:29N 50°53' W 001°24'0 0.0
2019-May-12 07:59N 50°53' W 001°24'0 0.0
2019-May-12 07:29N 50°53' W 001°24'0 0.0
2019-May-12 06:59N 50°53' W 001°24'0 0.0
2019-May-12 06:29N 50°53' W 001°24'0 0.0
2019-May-12 05:59N 50°53' W 001°24'0 0.0
2019-May-12 05:31N 50°53' W 001°24'2 4.6
2019-May-12 05:00N 50°51' W 001°21'4 8.2
2019-May-12 04:30N 50°48' W 001°18'5 9.5
2019-May-12 04:00N 50°46' W 001°11'918.1
2019-May-12 03:30N 50°42' W 000°58'611.8
2019-May-12 03:00N 50°37' W 000°54'612.9
2019-May-12 02:30N 50°35' W 000°44'713.9
2019-May-12 02:00N 50°33' W 000°34'817.0
2019-May-12 01:30N 50°31' W 000°21'917.5
2019-May-12 01:00N 50°31' W 000°07'917.9
2019-May-12 00:30N 50°33' E 000°07'1218.2
2019-May-11 23:51N 50°36' E 000°25'718.7
2019-May-11 23:30N 50°38' E 000°35'1019.4
2019-May-11 23:01N 50°43' E 000°47'1019.9
2019-May-11 22:30N 50°50' E 000°59'1020.1
2019-May-11 22:01N 50°56' E 001°11'1019.6
2019-May-11 21:31N 51°02' E 001°24'1019.0
2019-May-11 21:01N 51°08' E 001°36'918.4
2019-May-11 20:30N 51°14' E 001°47'918.1
2019-May-11 20:00N 51°22' E 001°54'917.7
2019-May-11 19:31N 51°29' E 002°02'917.6
2019-May-11 19:01N 51°35' E 002°12'917.4
2019-May-11 18:31N 51°42' E 002°21'917.4
2019-May-11 17:59N 51°50' E 002°29'917.7
2019-May-11 17:28N 51°58' E 002°35'918.1
2019-May-11 16:58N 52°07' E 002°36'918.5
2019-May-11 16:30N 52°15' E 002°41'1019.1
2019-May-11 16:00N 52°23' E 002°49'1019.6
2019-May-11 15:29N 52°32' E 002°57'2119.8
2019-May-11 14:24N 52°51' E 003°13'919.9
2019-May-11 13:56N 52°60' E 003°18'2219.9
2019-May-11 12:48N 53°21' E 003°29'619.3
2019-May-11 12:30N 53°27' E 003°32'1019.1
2019-May-11 11:59N 53°37' E 003°37'3919.6
2019-May-11 10:00N 54°00' E 004°30'3517.4 010 / 151018.0 12.7 1.410.0
2019-May-11 08:00N 54°30' E 005°00'17118.7 010 / 151017.010.8 9.3 1.9 9.0
2019-May-10 22:48N 56°54' E 007°45'718.2
2019-May-10 22:25N 56°60' E 007°52'718.1
2019-May-10 22:00N 57°06' E 007°60'917.7
2019-May-10 21:31N 57°13' E 008°09'916.9
2019-May-10 21:00N 57°19' E 008°20'817.0
2019-May-10 20:30N 57°24' E 008°33'816.9
2019-May-10 20:00N 57°29' E 008°46'816.8
2019-May-10 19:30N 57°34' E 008°58'816.7
2019-May-10 19:00N 57°39' E 009°11'133900.0
2019-May-10 19:00N 57°30' E 008°54'2142.9 280 / 301006.010.8 8.6 5.3 9.0
2019-May-10 18:30N 57°43' E 009°25'816.9
2019-May-10 18:00N 57°46' E 009°40'917.0
2019-May-10 17:30N 57°48' E 009°55'916.9
2019-May-10 17:00N 57°50' E 010°11'1017.9
2019-May-10 16:27N 57°50' E 010°29'818.1
2019-May-10 16:01N 57°48' E 010°44'612.5
2019-May-10 15:30N 57°43' E 010°37'1 1.9
2019-May-10 14:54N 57°43' E 010°35'0 0.0
2019-May-10 14:30N 57°43' E 010°35'0 0.0
2019-May-10 14:00N 57°43' E 010°35'0 0.0
2019-May-10 13:30N 57°43' E 010°35'0 0.0
2019-May-10 12:42N 57°43' E 010°35'0 0.0
2019-May-10 11:48N 57°43' E 010°35'0 0.0
2019-May-10 11:27N 57°43' E 010°35'0 0.0
2019-May-10 11:00N 57°43' E 010°35'0 0.0
2019-May-10 10:30N 57°43' E 010°35'0 0.0
2019-May-10 09:57N 57°43' E 010°35'0 0.0
2019-May-10 09:00N 57°43' E 010°35'0 0.0
2019-May-10 08:27N 57°43' E 010°35'0 0.0
2019-May-10 07:48N 57°43' E 010°35'0 0.0
2019-May-10 06:51N 57°43' E 010°35'1 2.3
2019-May-10 06:29N 57°43' E 010°37'611.8
2019-May-10 06:00N 57°41' E 010°47'918.7
2019-May-10 05:30N 57°38' E 011°03'919.0
2019-May-10 05:00N 57°33' E 011°18'918.9
2019-May-10 04:30N 57°25' E 011°28'1019.7
2019-May-10 04:00N 57°16' E 011°34'1019.6
2019-May-10 03:30N 57°07' E 011°41'1019.5
2019-May-10 03:00N 56°57' E 011°47'1817.8
2019-May-10 02:00N 56°40' E 011°47'  
Track history (hours):
 
Tides and Currents Weather Stations Pressure Air Temp Water Temp Dewpoint Dewpoint Depression Visibility Wind Speed Wind Dir Waves Ship Positions

Queen Victoria

Last reported at 2019-May-20 02:00 UTC. Time now 2019-May-20 02:24 UTC.
Position N 51°37' E 002°24'.

Length 294 m; draft 8 m.

Type: Passenger vessel. MMSI: 310624000.

Date/timePositionNaut miles runAvg speedWind from/ knotsBaromVisibWave heightAir tempDewpointWater temp
2019-May-20 02:00N 51°37' E 002°24'1121.1
2019-May-20 01:30N 51°29' E 002°13'1019.6
2019-May-20 01:00N 51°20' E 002°08'919.0
2019-May-20 00:30N 51°12' E 001°59'1121.8
2019-May-20 00:00N 51°05' E 001°45'1020.8
2019-May-19 23:30N 50°58' E 001°33'1021.0
2019-May-19 23:00N 50°49' E 001°25'1420.5
2019-May-19 22:19N 50°38' E 001°12'821.2
2019-May-19 21:57N 50°33' E 001°02'1020.9
2019-May-19 21:27N 50°30' E 000°47'2621.9
2019-May-19 20:17N 50°22' E 000°08'622.2
2019-May-19 20:00N 50°21' W 000°01'1121.2
2019-May-19 19:30N 50°25' W 000°16'1121.2
2019-May-19 19:00N 50°31' W 000°31'1021.1
2019-May-19 18:30N 50°35' W 000°45'918.3
2019-May-19 18:00N 50°41' W 000°57'611.3
2019-May-19 17:31N 50°44' W 001°04'917.1
2019-May-19 17:00N 50°47' W 001°17'4 8.6
2019-May-19 16:30N 50°51' W 001°20'4 7.8
2019-May-19 16:01N 50°53' W 001°24'0 0.5
2019-May-19 15:25N 50°54' W 001°24'0 0.0
2019-May-19 14:55N 50°54' W 001°24'0 0.0
2019-May-19 14:25N 50°54' W 001°24'0 0.0
2019-May-19 13:55N 50°54' W 001°24'0 0.0
2019-May-19 13:25N 50°54' W 001°24'0 0.0
2019-May-19 12:55N 50°54' W 001°24'0 0.0
2019-May-19 12:25N 50°54' W 001°24'0 0.0
2019-May-19 11:55N 50°54' W 001°24'0 0.0
2019-May-19 11:25N 50°54' W 001°24'0 0.0
2019-May-19 10:55N 50°54' W 001°24'0 0.0
2019-May-19 10:25N 50°54' W 001°24'0 0.0
2019-May-19 09:55N 50°54' W 001°24'0 0.0
2019-May-19 09:25N 50°54' W 001°24'0 0.0
2019-May-19 08:55N 50°54' W 001°24'0 0.0
2019-May-19 08:25N 50°54' W 001°24'0 0.0
2019-May-19 07:55N 50°54' W 001°24'0 0.0
2019-May-19 07:25N 50°54' W 001°24'0 0.0
2019-May-19 07:00N 50°54' W 001°24'0 0.0
2019-May-19 06:30N 50°54' W 001°24'0 0.0
2019-May-19 06:00N 50°54' W 001°24'0 0.0
2019-May-19 05:30N 50°54' W 001°24'0 0.4
2019-May-19 05:01N 50°53' W 001°24'4 7.9
2019-May-19 04:31N 50°51' W 001°20'4 8.4
2019-May-19 04:01N 50°46' W 001°18'714.1
2019-May-19 03:30N 50°45' W 001°07'714.2
2019-May-19 03:00N 50°42' W 000°57'511.0
2019-May-19 02:31N 50°37' W 000°52'713.3
2019-May-19 02:00N 50°36' W 000°42'713.4
2019-May-19 01:31N 50°35' W 000°32'815.0
2019-May-19 01:00N 50°32' W 000°21'816.3
2019-May-19 00:30N 50°30' W 000°08'1716.1
2019-May-18 23:27N 50°33' E 000°18'715.1
2019-May-18 23:00N 50°35' E 000°28'814.4
2019-May-18 22:27N 50°38' E 000°40'714.4
2019-May-18 22:00N 50°42' E 000°48'714.3
2019-May-18 21:30N 50°46' E 000°57'714.7
2019-May-18 21:00N 50°51' E 001°06'815.7
2019-May-18 20:30N 50°55' E 001°17'917.4
2019-May-18 20:00N 51°01' E 001°27'918.7
2019-May-18 19:30N 51°08' E 001°36'815.3
2019-May-18 19:01N 51°13' E 001°45'1121.4
2019-May-18 18:30N 51°23' E 001°52'1020.7
2019-May-18 18:01N 51°31' E 002°03'918.6
2019-May-18 17:30N 51°37' E 002°13'1019.4
2019-May-18 17:00N 51°45' E 002°24'1019.1
2019-May-18 16:30N 51°53' E 002°32'918.1
2019-May-18 16:00N 52°02' E 002°36'918.1
2019-May-18 15:30N 52°11' E 002°37'917.9
2019-May-18 15:00N 52°20' E 002°38'917.5
2019-May-18 14:30N 52°28' E 002°38'714.8
2019-May-18 14:00N 52°36' E 002°38'816.7
2019-May-18 13:30N 52°44' E 002°38'917.9
2019-May-18 13:00N 52°53' E 002°38'918.2
2019-May-18 12:30N 53°02' E 002°38'918.4
2019-May-18 12:00N 53°11' E 002°42'1018.9
2019-May-18 11:30N 53°20' E 002°47'27019.2
2019-May-17 21:25N 57°44' E 004°23'819.5
2019-May-17 21:00N 57°52' E 004°27'917.8
2019-May-17 20:30N 58°01' E 004°30'713.8
2019-May-17 20:00N 58°08' E 004°33'1019.3
2019-May-17 19:30N 58°17' E 004°38'1019.5
2019-May-17 18:59N 58°27' E 004°44'919.4
2019-May-17 18:30N 58°35' E 004°50'1019.3
2019-May-17 18:00N 58°45' E 004°55'1019.5
2019-May-17 17:30N 58°54' E 004°60'1019.8
2019-May-17 17:00N 59°04' E 005°05'713.5
2019-May-17 16:30N 59°10' E 005°07'814.9
2019-May-17 16:00N 59°18' E 005°06'714.3
2019-May-17 15:30N 59°25' E 005°09'3 6.5
2019-May-17 15:00N 59°24' E 005°15'0 0.4
2019-May-17 14:30N 59°25' E 005°15'0 0.0
2019-May-17 14:00N 59°25' E 005°15'0 0.0
2019-May-17 13:30N 59°25' E 005°15'0 0.0
2019-May-17 13:00N 59°25' E 005°15'0 0.0
2019-May-17 12:30N 59°25' E 005°15'0 0.0
2019-May-17 12:00N 59°25' E 005°15'0 0.0
2019-May-17 11:30N 59°25' E 005°15'0 0.0
2019-May-17 11:00N 59°25' E 005°15'0 0.0
2019-May-17 10:30N 59°25' E 005°15'0 0.0
2019-May-17 10:00N 59°25' E 005°15'0 0.0
2019-May-17 09:30N 59°25' E 005°15'0 0.0
2019-May-17 09:00N 59°25' E 005°15'0 0.0
2019-May-17 08:30N 59°25' E 005°15'0 0.0
2019-May-17 08:00N 59°25' E 005°15'0 0.0
2019-May-17 07:30N 59°25' E 005°15'0 0.0
2019-May-17 07:00N 59°25' E 005°15'0 0.0
2019-May-17 06:30N 59°25' E 005°15'0 0.0
2019-May-17 06:00N 59°25' E 005°15'0 0.0
2019-May-17 05:30N 59°25' E 005°15'3 5.7
2019-May-17 05:00N 59°27' E 005°12'613.0
2019-May-17 04:30N 59°30' E 005°00'713.5
2019-May-17 04:00N 59°36' E 004°55'714.1
2019-May-17 03:30N 59°43' E 004°50'714.9
2019-May-17 03:00N 59°50' E 004°45'714.7
2019-May-17 02:30N 59°57' E 004°40'714.1
2019-May-17 02:00N 60°03' E 004°35'815.2
2019-May-17 01:30N 60°10' E 004°29'1020.2
2019-May-17 01:00N 60°20' E 004°23'1020.4
2019-May-17 00:30N 60°30' E 004°17'1020.3
2019-May-17 00:00N 60°40' E 004°11'1020.3
2019-May-16 23:30N 60°49' E 004°05'1020.1
2019-May-16 23:00N 60°59' E 004°01'1019.9
2019-May-16 22:30N 61°09' E 004°01'1019.9
2019-May-16 22:00N 61°19' E 004°02'1019.9
2019-May-16 21:30N 61°29' E 004°02'1019.7
2019-May-16 21:00N 61°39' E 004°02'3228.7
2019-May-16 21:00N 61°36' E 004°00'1224.8 040 / 201026.610.8 8.8 7.6 9.0
2019-May-16 20:30N 61°46' E 004°14'1019.3
2019-May-16 20:00N 61°53' E 004°29'919.3
2019-May-16 19:30N 61°58' E 004°46'815.0
2019-May-16 19:00N 61°56' E 005°02'815.5
2019-May-16 18:30N 61°54' E 005°18'1019.0
2019-May-16 18:00N 61°54' E 005°38'714.0
2019-May-16 17:30N 61°52' E 005°52'714.3
2019-May-16 17:00N 61°51' E 006°07'714.2
2019-May-16 16:30N 61°50' E 006°22'611.9
2019-May-16 15:59N 61°52' E 006°35'712.7
2019-May-16 15:28N 61°51' E 006°48'7 0.6
2019-May-16 04:40N 61°52' E 006°34'315.8
2019-May-16 04:29N 61°49' E 006°29'919.1
2019-May-16 04:00N 61°51' E 006°10'918.5
2019-May-16 03:30N 61°51' E 005°51'816.3
2019-May-16 03:00N 61°54' E 005°35'918.7
2019-May-16 02:30N 61°54' E 005°15'815.7
2019-May-16 02:00N 61°56' E 004°59'715.0
2019-May-16 01:30N 61°57' E 004°43'918.8
2019-May-16 01:00N 61°52' E 004°27'918.2
2019-May-16 00:30N 61°47' E 004°10'714.7
2019-May-16 00:00N 61°42' E 004°00'714.7
2019-May-15 23:30N 61°36' E 003°50'714.9
2019-May-15 23:00N 61°30' E 003°41'713.7
2019-May-15 22:30N 61°24' E 003°50'714.9
2019-May-15 22:00N 61°21' E 004°04'918.4
2019-May-15 21:30N 61°17' E 004°21'1019.2
2019-May-15 21:00N 61°15' E 004°41'918.7
2019-May-15 20:30N 61°12' E 004°60'714.3
2019-May-15 20:01N 61°08' E 005°10'918.8
2019-May-15 19:30N 61°04' E 005°28'1020.1
2019-May-15 19:00N 61°08' E 005°48'1019.9
2019-May-15 18:30N 61°08' E 006°08'1019.5
2019-May-15 18:00N 61°06' E 006°28'816.6
2019-May-15 17:30N 61°11' E 006°43'917.3
2019-May-15 17:00N 61°06' E 006°58'714.9
2019-May-15 16:30N 60°59' E 007°04'611.2
2019-May-15 16:00N 60°54' E 007°10'3 5.0
2019-May-15 15:30N 60°52' E 007°07'0 0.2
2019-May-15 14:58N 60°52' E 007°07'0 0.0
2019-May-15 14:28N 60°52' E 007°07'0 0.0
2019-May-15 13:58N 60°52' E 007°07'0 0.0
2019-May-15 13:28N 60°52' E 007°07'0 0.0
2019-May-15 12:58N 60°52' E 007°07'0 0.0
2019-May-15 12:28N 60°52' E 007°07'0 0.0
2019-May-15 11:58N 60°52' E 007°07'0 0.0
2019-May-15 11:28N 60°52' E 007°07'0 0.0
2019-May-15 10:58N 60°52' E 007°07'0 0.0
2019-May-15 10:28N 60°52' E 007°07'0 0.0
2019-May-15 09:58N 60°52' E 007°07'0 0.0
2019-May-15 09:28N 60°52' E 007°07'0 0.0
2019-May-15 08:58N 60°52' E 007°07'0 0.0
2019-May-15 08:28N 60°52' E 007°07'0 0.0
2019-May-15 07:58N 60°52' E 007°07'0 0.0
2019-May-15 07:28N 60°52' E 007°07'0 0.0
2019-May-15 06:58N 60°52' E 007°07'0 0.0
2019-May-15 06:28N 60°52' E 007°07'0 0.0
2019-May-15 05:58N 60°52' E 007°07'0 0.1
2019-May-15 05:29N 60°52' E 007°07'3 6.8
2019-May-15 05:00N 60°55' E 007°10'611.1
2019-May-15 04:30N 60°60' E 007°04'611.9
2019-May-15 03:59N 61°05' E 006°59'612.0
2019-May-15 03:30N 61°09' E 006°51'612.1
2019-May-15 03:00N 61°11' E 006°39'611.2
2019-May-15 02:30N 61°07' E 006°31'714.3
2019-May-15 02:00N 61°07' E 006°16'814.8
2019-May-15 01:30N 61°08' E 006°01'918.2
2019-May-15 01:00N 61°07' E 005°42'1019.3
2019-May-15 00:30N 61°03' E 005°24'918.2
2019-May-15 00:00N 61°05' E 005°05'1019.6
2019-May-14 23:31N 61°00' E 004°48'1019.0
2019-May-14 23:00N 60°52' E 004°38'1019.3
2019-May-14 22:30N 60°45' E 004°24'918.9
2019-May-14 22:01N 60°37' E 004°14'815.2
2019-May-14 21:30N 60°29' E 004°17'815.1
2019-May-14 21:00N 60°22' E 004°19'815.1
2019-May-14 20:29N 60°14' E 004°22'715.1
2019-May-14 20:00N 60°07' E 004°24'815.0
2019-May-14 19:30N 59°60' E 004°27'815.4
2019-May-14 19:00N 59°52' E 004°30'715.0
2019-May-14 18:31N 59°45' E 004°33'714.7
2019-May-14 18:01N 59°37' E 004°35'815.8
2019-May-14 17:30N 59°30' E 004°42'1019.5
2019-May-14 17:01N 59°23' E 004°54'1019.2
2019-May-14 16:30N 59°14' E 005°01'918.4
2019-May-14 16:00N 59°07' E 005°13'918.8
2019-May-14 15:30N 59°06' E 005°31'816.4
2019-May-14 15:00N 58°60' E 005°41'2 3.6
2019-May-14 14:29N 58°58' E 005°44'0 0.0
2019-May-14 13:59N 58°58' E 005°44'0 0.0
2019-May-14 13:29N 58°58' E 005°44'0 0.0
2019-May-14 12:59N 58°58' E 005°44'0 0.0
2019-May-14 12:29N 58°58' E 005°44'0 0.0
2019-May-14 11:59N 58°58' E 005°44'0 0.0
2019-May-14 11:29N 58°58' E 005°44'0 0.0
2019-May-14 10:59N 58°58' E 005°44'0 0.0
2019-May-14 10:29N 58°58' E 005°44'0 0.0
2019-May-14 09:59N 58°58' E 005°44'0 0.0
2019-May-14 09:29N 58°58' E 005°44'0 0.0
2019-May-14 08:59N 58°58' E 005°44'0 0.0
2019-May-14 08:29N 58°58' E 005°44'0 0.0
2019-May-14 07:59N 58°58' E 005°44'0 0.0
2019-May-14 07:29N 58°58' E 005°44'0 0.0
2019-May-14 06:59N 58°58' E 005°44'0 0.0
2019-May-14 06:29N 58°58' E 005°44'1 1.9
2019-May-14 06:01N 58°59' E 005°43'611.4
2019-May-14 05:30N 59°03' E 005°34'714.2
2019-May-14 05:00N 58°56' E 005°33'612.6
2019-May-14 04:30N 58°50' E 005°28'918.7
2019-May-14 04:00N 58°42' E 005°18'1019.4
2019-May-14 03:30N 58°34' E 005°10'1019.2
2019-May-14 03:00N 58°24' E 005°07'1019.5
2019-May-14 02:30N 58°14' E 005°04'1019.6
2019-May-14 02:00N 58°05' E 005°01'1019.6
2019-May-14 01:29N 57°55' E 004°59'919.3
2019-May-14 01:00N 57°46' E 004°57'1019.1
2019-May-14 00:29N 57°36' E 004°53'919.2
2019-May-14 00:00N 57°27' E 004°49'1019.3
2019-May-13 23:30N 57°17' E 004°47'1019.2
2019-May-13 22:59N 57°07' E 004°44'1019.0
2019-May-13 22:29N 56°58' E 004°41'1019.3
2019-May-13 22:00N 56°49' E 004°38'1019.2
2019-May-13 21:30N 56°39' E 004°35'1019.1
2019-May-13 21:00N 56°30' E 004°32'61518.0
2019-May-13 21:00N 56°36' E 004°30'1531.8 010 / 51039.110.8 8.7 7.3-0.0
2019-May-13 20:30N 56°21' E 004°30'1019.1
2019-May-13 20:00N 56°11' E 004°27'1019.1
2019-May-13 19:30N 56°02' E 004°24'1019.1
2019-May-13 19:00N 55°52' E 004°21'1019.2
2019-May-13 18:28N 55°42' E 004°18'919.2
2019-May-13 18:00N 55°33' E 004°15'919.2
2019-May-13 17:30N 55°24' E 004°12'13718.5
2019-May-13 10:08N 53°16' E 002°49'44300.7
2019-May-13 10:00N 54°00' E 002°42'471255.5 020 / 11041.510.8 9.4 3.911.0
2019-May-13 09:57N 53°13' E 002°47'2720.2
2019-May-13 08:37N 52°46' E 002°42'220.0
2019-May-13 08:30N 52°44' E 002°42'1019.9
2019-May-13 08:00N 52°34' E 002°42'1019.8
2019-May-13 07:30N 52°24' E 002°41'1019.5
2019-May-13 07:00N 52°14' E 002°39'1019.3
2019-May-13 06:30N 52°05' E 002°38'1119.0
2019-May-13 05:56N 51°54' E 002°37'818.7
2019-May-13 05:30N 51°46' E 002°34'918.7
2019-May-13 05:00N 51°39' E 002°25'918.5
2019-May-13 04:30N 51°32' E 002°15'917.4
2019-May-13 04:01N 51°24' E 002°08'5 9.8
2019-May-13 03:31N 51°19' E 002°08'611.9
2019-May-13 03:01N 51°14' E 002°04'917.2
2019-May-13 02:31N 51°10' E 001°52'917.3
2019-May-13 02:01N 51°05' E 001°40'917.1
2019-May-13 01:31N 50°58' E 001°32'917.3
2019-May-13 01:00N 50°50' E 001°27'917.3
2019-May-13 00:31N 50°43' E 001°20'917.8
2019-May-13 00:01N 50°37' E 001°10'917.7
2019-May-12 23:30N 50°31' E 000°59'917.7
2019-May-12 23:00N 50°29' E 000°46'15981.4
2019-May-12 23:00N 50°24' E 000°24'612.3 070 / 241037.210.8 10.4 5.4 9.0
2019-May-12 22:30N 50°26' E 000°33'1217.3
2019-May-12 21:49N 50°23' E 000°15'1617.0
2019-May-12 20:52N 50°23' W 000°10'817.2
2019-May-12 20:25N 50°26' W 000°22'917.7
2019-May-12 19:55N 50°30' W 000°33'717.6
2019-May-12 19:31N 50°34' W 000°43'917.2
2019-May-12 19:00N 50°39' W 000°55'612.0
2019-May-12 18:30N 50°43' W 001°01'816.7
2019-May-12 18:00N 50°46' W 001°13'5 9.5
2019-May-12 17:31N 50°49' W 001°18'5 9.2
2019-May-12 17:01N 50°53' W 001°23'1 1.1
2019-May-12 16:29N 50°53' W 001°24'0 0.0
2019-May-12 15:59N 50°53' W 001°24'0 0.0
2019-May-12 15:26N 50°53' W 001°24'0 0.0
2019-May-12 14:56N 50°53' W 001°24'0 0.0
2019-May-12 14:29N 50°53' W 001°24'0 0.0
2019-May-12 13:59N 50°53' W 001°24'0 0.0
2019-May-12 13:29N 50°53' W 001°24'0 0.0
2019-May-12 12:59N 50°53' W 001°24'0 0.0
2019-May-12 12:29N 50°53' W 001°24'0 0.0
2019-May-12 11:59N 50°53' W 001°24'0 0.0
2019-May-12 11:29N 50°53' W 001°24'0 0.0
2019-May-12 10:59N 50°53' W 001°24'0 0.0
2019-May-12 10:29N 50°53' W 001°24'0 0.0
2019-May-12 09:59N 50°53' W 001°24'0 0.0
2019-May-12 09:29N 50°53' W 001°24'0 0.0
2019-May-12 08:59N 50°53' W 001°24'0 0.0
2019-May-12 08:29N 50°53' W 001°24'0 0.0
2019-May-12 07:59N 50°53' W 001°24'0 0.0
2019-May-12 07:29N 50°53' W 001°24'0 0.0
2019-May-12 06:59N 50°53' W 001°24'0 0.0
2019-May-12 06:29N 50°53' W 001°24'0 0.0
2019-May-12 05:59N 50°53' W 001°24'0 0.0
2019-May-12 05:31N 50°53' W 001°24'2 4.6
2019-May-12 05:00N 50°51' W 001°21'4 8.2
2019-May-12 04:30N 50°48' W 001°18'5 9.5
2019-May-12 04:00N 50°46' W 001°11'918.1
2019-May-12 03:30N 50°42' W 000°58'611.8
2019-May-12 03:00N 50°37' W 000°54'612.9
2019-May-12 02:30N 50°35' W 000°44'713.9
2019-May-12 02:00N 50°33' W 000°34'817.0
2019-May-12 01:30N 50°31' W 000°21'917.5
2019-May-12 01:00N 50°31' W 000°07'917.9
2019-May-12 00:30N 50°33' E 000°07'1218.2
2019-May-11 23:51N 50°36' E 000°25'718.7
2019-May-11 23:30N 50°38' E 000°35'1019.4
2019-May-11 23:01N 50°43' E 000°47'1019.9
2019-May-11 22:30N 50°50' E 000°59'1020.1
2019-May-11 22:01N 50°56' E 001°11'1019.6
2019-May-11 21:31N 51°02' E 001°24'1019.0
2019-May-11 21:01N 51°08' E 001°36'918.4
2019-May-11 20:30N 51°14' E 001°47'918.1
2019-May-11 20:00N 51°22' E 001°54'917.7
2019-May-11 19:31N 51°29' E 002°02'917.6
2019-May-11 19:01N 51°35' E 002°12'917.4
2019-May-11 18:31N 51°42' E 002°21'917.4
2019-May-11 17:59N 51°50' E 002°29'917.7
2019-May-11 17:28N 51°58' E 002°35'918.1
2019-May-11 16:58N 52°07' E 002°36'918.5
2019-May-11 16:30N 52°15' E 002°41'1019.1
2019-May-11 16:00N 52°23' E 002°49'1019.6
2019-May-11 15:29N 52°32' E 002°57'2119.8
2019-May-11 14:24N 52°51' E 003°13'919.9
2019-May-11 13:56N 52°60' E 003°18'2219.9
2019-May-11 12:48N 53°21' E 003°29'619.3
2019-May-11 12:30N 53°27' E 003°32'1019.1
2019-May-11 11:59N 53°37' E 003°37'3919.6
2019-May-11 10:00N 54°00' E 004°30'3517.4 010 / 151018.0 12.7 1.410.0
2019-May-11 08:00N 54°30' E 005°00'17118.7 010 / 151017.010.8 9.3 1.9 9.0
2019-May-10 22:48N 56°54' E 007°45'718.2
2019-May-10 22:25N 56°60' E 007°52'718.1
2019-May-10 22:00N 57°06' E 007°60'917.7
2019-May-10 21:31N 57°13' E 008°09'916.9
2019-May-10 21:00N 57°19' E 008°20'817.0
2019-May-10 20:30N 57°24' E 008°33'816.9
2019-May-10 20:00N 57°29' E 008°46'816.8
2019-May-10 19:30N 57°34' E 008°58'816.7
2019-May-10 19:00N 57°39' E 009°11'133900.0
2019-May-10 19:00N 57°30' E 008°54'2142.9 280 / 301006.010.8 8.6 5.3 9.0
2019-May-10 18:30N 57°43' E 009°25'816.9
2019-May-10 18:00N 57°46' E 009°40'917.0
2019-May-10 17:30N 57°48' E 009°55'916.9
2019-May-10 17:00N 57°50' E 010°11'1017.9
2019-May-10 16:27N 57°50' E 010°29'818.1
2019-May-10 16:01N 57°48' E 010°44'612.5
2019-May-10 15:30N 57°43' E 010°37'1 1.9
2019-May-10 14:54N 57°43' E 010°35'0 0.0
2019-May-10 14:30N 57°43' E 010°35'0 0.0
2019-May-10 14:00N 57°43' E 010°35'0 0.0
2019-May-10 13:30N 57°43' E 010°35'0 0.0
2019-May-10 12:42N 57°43' E 010°35'0 0.0
2019-May-10 11:48N 57°43' E 010°35'0 0.0
2019-May-10 11:27N 57°43' E 010°35'0 0.0
2019-May-10 11:00N 57°43' E 010°35'0 0.0
2019-May-10 10:30N 57°43' E 010°35'0 0.0
2019-May-10 09:57N 57°43' E 010°35'0 0.0
2019-May-10 09:00N 57°43' E 010°35'0 0.0
2019-May-10 08:27N 57°43' E 010°35'0 0.0
2019-May-10 07:48N 57°43' E 010°35'0 0.0
2019-May-10 06:51N 57°43' E 010°35'1 2.3
2019-May-10 06:29N 57°43' E 010°37'611.8
2019-May-10 06:00N 57°41' E 010°47'918.7
2019-May-10 05:30N 57°38' E 011°03'919.0
2019-May-10 05:00N 57°33' E 011°18'918.9
2019-May-10 04:30N 57°25' E 011°28'1019.7
2019-May-10 04:00N 57°16' E 011°34'1019.6
2019-May-10 03:30N 57°07' E 011°41'1019.5
2019-May-10 03:00N 56°57' E 011°47'1817.8
2019-May-10 02:00N 56°40' E 011°47'  

Dump ship's entire track history